createdAt,value
2023-01-17T00:01:12.996Z,98876.66
2023-01-17T00:03:56.190Z,98785.34
2023-01-17T00:06:50.212Z,98770.91
2023-01-17T00:09:36.885Z,98406.25
2023-01-17T00:12:05.876Z,98869.34
2023-01-17T00:14:35.443Z,98633.94
2023-01-17T00:17:04.666Z,98743.56
2023-01-17T00:19:52.767Z,98689.06
2023-01-17T00:22:44.974Z,98851.28
2023-01-17T00:25:35.224Z,98817.13
2023-01-17T00:28:05.826Z,98562.19
2023-01-17T00:30:33.412Z,98748.88
2023-01-17T00:33:11.590Z,98564.94
2023-01-17T00:35:40.787Z,98617.03
2023-01-17T00:38:13.118Z,98790.38
2023-01-17T00:40:41.988Z,98587.03
2023-01-17T00:43:36.869Z,98709.72
2023-01-17T00:46:25.101Z,98780.09
2023-01-17T00:49:33.495Z,98756.25
2023-01-17T00:52:21.578Z,98592.34
2023-01-17T00:55:10.724Z,98594.69
2023-01-17T00:58:00.098Z,98638.50
2023-01-17T01:00:54.439Z,98499.44
2023-01-17T01:03:40.477Z,98760.88
2023-01-17T01:06:27.623Z,98554.63
2023-01-17T01:09:13.629Z,98560.94
2023-01-17T01:12:01.280Z,98700.72
2023-01-17T01:14:49.623Z,98676.03
2023-01-17T01:17:38.083Z,98628.59
2023-01-17T01:20:24.797Z,98732.06
2023-01-17T01:23:10.874Z,98726.56
2023-01-17T01:25:59.229Z,98623.19
2023-01-17T01:28:47.218Z,98636.78
2023-01-17T01:31:35.447Z,98673.31
2023-01-17T01:34:07.667Z,98511.63
2023-01-17T01:36:37.422Z,98679.31
2023-01-17T01:39:08.587Z,98624.13
2023-01-17T01:41:38.233Z,98619.50
2023-01-17T01:44:39.947Z,98714.50
2023-01-17T01:47:10.584Z,98479.75
2023-01-17T01:49:40.526Z,98709.22
2023-01-17T01:52:11.019Z,98701.06
2023-01-17T01:54:46.104Z,98606.59
2023-01-17T01:57:26.619Z,98522.06
2023-01-17T02:00:02.134Z,98685.84
2023-01-17T02:02:53.202Z,98696.78
2023-01-17T02:05:24.121Z,98657.13
2023-01-17T02:07:59.034Z,98651.69
2023-01-17T02:10:29.784Z,98585.22
2023-01-17T02:12:59.445Z,98680.06
2023-01-17T02:15:33.173Z,98358.25
2023-01-17T02:18:15.089Z,98567.47
2023-01-17T02:20:59.470Z,98477.06
2023-01-17T02:24:07.420Z,98659.69
2023-01-17T02:26:52.374Z,98535.84
2023-01-17T02:30:04.653Z,98643.75
2023-01-17T02:32:46.757Z,98459.06
2023-01-17T02:35:28.258Z,98489.50
2023-01-17T02:38:05.024Z,98617.59
2023-01-17T02:40:40.963Z,98554.16
2023-01-17T02:43:14.712Z,98590.56
2023-01-17T02:45:47.027Z,98539.59
2023-01-17T02:48:24.406Z,98604.19
2023-01-17T02:51:20.904Z,98529.97
2023-01-17T02:54:05.222Z,98587.28
2023-01-17T02:56:46.196Z,98611.31
2023-01-17T02:59:27.983Z,98624.56
2023-01-17T03:02:09.368Z,98346.69
2023-01-17T03:04:45.955Z,98602.16
2023-01-17T03:07:18.366Z,98354.00
2023-01-17T03:09:53.708Z,98308.81
2023-01-17T03:12:24.288Z,98612.13
2023-01-17T03:14:54.756Z,98622.38
2023-01-17T03:17:24.970Z,98579.81
2023-01-17T03:19:55.956Z,98598.19
2023-01-17T03:22:25.892Z,98286.56
2023-01-17T03:24:55.645Z,98554.16
2023-01-17T03:27:25.627Z,98465.88
2023-01-17T03:29:55.172Z,98552.50
2023-01-17T03:32:24.787Z,98354.38
2023-01-17T03:34:56.916Z,98583.28
2023-01-17T03:37:26.832Z,98549.16
2023-01-17T03:40:09.948Z,98559.94
2023-01-17T03:42:38.585Z,98447.19
2023-01-17T03:45:14.056Z,98459.63
2023-01-17T03:47:42.662Z,98191.22
2023-01-17T03:50:18.902Z,98524.47
2023-01-17T03:52:48.495Z,98505.75
2023-01-17T03:55:30.920Z,98502.59
2023-01-17T03:58:00.576Z,98527.63
2023-01-17T04:00:34.136Z,98509.25
2023-01-17T04:03:03.861Z,98286.09
2023-01-17T04:05:33.893Z,98454.78
2023-01-17T04:08:03.399Z,98457.63
2023-01-17T04:10:40.147Z,98353.72
2023-01-17T04:13:10.317Z,98492.00
2023-01-17T04:15:40.302Z,98401.00
2023-01-17T04:18:13.792Z,98434.28
2023-01-17T04:20:52.124Z,98493.81
2023-01-17T04:23:21.968Z,98487.50
2023-01-17T04:25:53.266Z,98483.88
2023-01-17T04:28:21.962Z,98467.78
2023-01-17T04:30:50.460Z,98301.28
2023-01-17T04:33:20.935Z,98482.72
2023-01-17T04:35:49.466Z,98488.00
2023-01-17T04:38:19.447Z,98450.47
2023-01-17T04:40:48.999Z,98499.09
2023-01-17T04:43:18.922Z,98479.56
2023-01-17T04:45:47.502Z,98464.81
2023-01-17T04:48:18.343Z,98469.13
2023-01-17T04:50:47.893Z,98210.22
2023-01-17T04:53:16.849Z,98311.66
2023-01-17T04:55:48.398Z,98484.69
2023-01-17T04:58:18.387Z,98378.34
2023-01-17T05:00:51.164Z,98407.47
2023-01-17T05:03:20.231Z,98478.22
2023-01-17T05:05:48.812Z,98347.09
2023-01-17T05:08:18.292Z,98462.97
2023-01-17T05:10:49.081Z,98334.81
2023-01-17T05:13:18.216Z,98446.91
2023-01-17T05:15:47.138Z,98439.13
2023-01-17T05:18:16.219Z,98424.22
2023-01-17T05:20:44.735Z,98407.97
2023-01-17T05:23:14.594Z,98407.97
2023-01-17T05:25:44.513Z,98385.13
2023-01-17T05:28:15.029Z,98355.50
2023-01-17T05:30:43.466Z,98375.50
2023-01-17T05:33:12.225Z,98371.50
2023-01-17T05:35:40.775Z,98371.50
2023-01-17T05:38:09.355Z,98361.34
2023-01-17T05:40:37.877Z,98199.31
2023-01-17T05:43:06.333Z,98361.56
2023-01-17T05:45:36.435Z,98341.97
2023-01-17T05:48:06.842Z,98334.84
2023-01-17T05:50:37.640Z,98315.28
2023-01-17T05:53:08.585Z,98326.59
2023-01-17T05:55:37.651Z,98333.91
2023-01-17T05:58:07.224Z,98322.63
2023-01-17T06:00:37.878Z,98328.13
2023-01-17T06:03:06.789Z,98302.97
2023-01-17T06:05:35.489Z,98289.63
2023-01-17T06:08:04.041Z,98307.38
2023-01-17T06:10:32.673Z,98202.53
2023-01-17T06:13:06.581Z,98280.34
2023-01-17T06:15:37.933Z,98320.34
2023-01-17T06:18:08.540Z,98316.41
2023-01-17T06:20:37.359Z,98235.84
2023-01-17T06:23:08.498Z,98346.84
2023-01-17T06:25:39.056Z,98342.19
2023-01-17T06:28:08.255Z,98184.16
2023-01-17T06:30:38.689Z,98366.19
2023-01-17T06:33:08.209Z,98357.41
2023-01-17T06:35:37.759Z,98353.94
2023-01-17T06:38:06.372Z,98364.53
2023-01-17T06:40:35.056Z,98343.88
2023-01-17T06:43:04.160Z,98347.81
2023-01-17T06:45:35.126Z,98352.63
2023-01-17T06:48:05.899Z,98348.16
2023-01-17T06:50:36.084Z,98293.84
2023-01-17T06:53:07.477Z,98351.81
2023-01-17T06:55:40.416Z,98294.66
2023-01-17T06:58:11.196Z,98347.84
2023-01-17T07:00:41.060Z,98352.97
2023-01-17T07:03:19.224Z,98129.69
2023-01-17T07:05:47.788Z,98339.88
2023-01-17T07:08:17.567Z,98308.72
2023-01-17T07:10:46.387Z,98344.50
2023-01-17T07:13:15.308Z,98292.47
2023-01-17T07:15:44.062Z,98164.84
2023-01-17T07:18:14.820Z,98345.81
2023-01-17T07:20:44.838Z,98344.59
2023-01-17T07:23:13.449Z,98348.91
2023-01-17T07:25:41.881Z,98350.94
2023-01-17T07:28:10.806Z,98350.41
2023-01-17T07:30:39.245Z,98158.38
2023-01-17T07:33:07.865Z,98347.41
2023-01-17T07:35:38.268Z,98356.19
2023-01-17T07:38:11.464Z,98316.56
2023-01-17T07:40:42.328Z,98367.78
2023-01-17T07:43:14.640Z,98370.09
2023-01-17T07:45:44.257Z,98375.41
2023-01-17T07:48:14.716Z,98255.69
2023-01-17T07:50:44.720Z,98394.13
2023-01-17T07:53:13.212Z,98391.31
2023-01-17T07:55:41.609Z,98300.63
2023-01-17T07:58:11.423Z,98085.47
2023-01-17T08:00:39.945Z,98357.66
2023-01-17T08:03:13.749Z,98430.91
2023-01-17T08:05:44.746Z,98419.63
2023-01-17T08:08:13.420Z,98349.59
2023-01-17T08:10:42.026Z,98441.00
2023-01-17T08:13:10.913Z,98358.03
2023-01-17T08:15:39.620Z,98414.38
2023-01-17T08:18:11.884Z,98470.78
2023-01-17T08:20:40.621Z,98462.94
2023-01-17T08:23:11.846Z,98468.75
2023-01-17T08:25:40.788Z,98438.88
2023-01-17T08:28:10.828Z,98394.22
2023-01-17T08:30:39.271Z,98376.47
2023-01-17T08:33:08.140Z,98454.44
2023-01-17T08:35:37.080Z,98441.16
2023-01-17T08:38:06.509Z,98435.47
2023-01-17T08:40:36.479Z,98420.22
2023-01-17T08:43:05.214Z,98417.38
2023-01-17T08:45:33.674Z,98388.44
2023-01-17T08:48:02.082Z,98417.66
2023-01-17T08:50:30.595Z,98410.34
2023-01-17T08:53:01.461Z,98414.47
2023-01-17T08:55:30.185Z,98400.00
2023-01-17T08:58:01.022Z,98371.63
2023-01-17T09:00:30.115Z,98160.94
2023-01-17T09:02:59.602Z,98312.97
2023-01-17T09:05:28.703Z,98345.53
2023-01-17T09:07:57.580Z,98356.09
2023-01-17T09:10:26.035Z,98267.19
2023-01-17T09:12:54.398Z,98387.47
2023-01-17T09:15:24.737Z,98359.13
2023-01-17T09:17:56.873Z,98426.72
2023-01-17T09:20:30.239Z,98427.97
2023-01-17T09:22:58.752Z,98392.41
2023-01-17T09:25:28.141Z,98427.75
2023-01-17T09:27:56.588Z,98344.78
2023-01-17T09:30:26.492Z,98418.72
2023-01-17T09:32:56.218Z,98404.69
2023-01-17T09:35:24.953Z,98412.41
2023-01-17T09:37:55.821Z,98418.31
2023-01-17T09:40:26.746Z,98434.94
2023-01-17T09:43:01.467Z,98422.56
2023-01-17T09:45:33.095Z,98341.59
2023-01-17T09:48:08.240Z,98429.63
2023-01-17T09:50:45.266Z,98440.25
2023-01-17T09:53:16.220Z,98448.63
2023-01-17T09:55:51.422Z,98454.94
2023-01-17T09:58:22.772Z,98442.47
2023-01-17T10:01:09.301Z,98446.72
2023-01-17T10:03:58.860Z,98457.72
2023-01-17T10:06:47.282Z,98445.69
2023-01-17T10:09:41.269Z,98429.44
2023-01-17T10:12:23.517Z,98372.59
2023-01-17T10:15:12.681Z,98418.22
2023-01-17T10:17:52.054Z,98406.91
2023-01-17T10:20:43.505Z,98401.06
2023-01-17T10:23:43.668Z,98411.63
2023-01-17T10:26:15.638Z,98413.94
2023-01-17T10:28:48.979Z,98331.00
2023-01-17T10:31:23.764Z,98436.69
2023-01-17T10:33:55.417Z,98437.56
2023-01-17T10:36:29.251Z,98300.38
2023-01-17T10:39:00.670Z,98421.16
2023-01-17T10:41:31.380Z,98421.50
2023-01-17T10:44:11.142Z,98209.13
2023-01-17T10:46:42.538Z,98413.56
2023-01-17T10:49:18.033Z,98392.34
2023-01-17T10:52:01.313Z,98386.06
2023-01-17T10:54:42.064Z,98362.13
2023-01-17T10:57:16.326Z,98346.97
2023-01-17T10:59:45.465Z,98274.78
2023-01-17T11:02:23.016Z,98317.47
2023-01-17T11:04:55.832Z,98197.84
2023-01-17T11:07:25.724Z,98300.66
2023-01-17T11:09:55.771Z,98287.97
2023-01-17T11:12:30.862Z,98224.63
2023-01-17T11:15:04.763Z,98303.81
2023-01-17T11:17:34.338Z,98306.50
2023-01-17T11:20:20.180Z,98319.69
2023-01-17T11:23:04.419Z,98331.16
2023-01-17T11:25:35.450Z,98338.38
2023-01-17T11:28:06.799Z,98331.81
2023-01-17T11:30:35.608Z,98332.03
2023-01-17T11:33:06.375Z,98334.72
2023-01-17T11:35:37.766Z,98346.44
2023-01-17T11:38:08.490Z,98339.03
2023-01-17T11:40:40.874Z,98340.69
2023-01-17T11:43:26.876Z,98338.63
2023-01-17T11:46:04.192Z,98342.72
2023-01-17T11:48:38.198Z,98344.78
2023-01-17T11:51:20.220Z,98333.06
2023-01-17T11:53:49.495Z,98323.19
2023-01-17T11:56:28.738Z,98319.91
2023-01-17T11:59:15.402Z,98311.47
2023-01-17T12:01:50.938Z,98319.50
2023-01-17T12:04:28.533Z,98325.47
2023-01-17T12:07:25.824Z,98333.50
2023-01-17T12:10:02.641Z,98322.59
2023-01-17T12:12:58.943Z,98326.09
2023-01-17T12:15:53.171Z,98323.63
2023-01-17T12:18:34.945Z,98315.19
2023-01-17T12:21:16.927Z,98208.31
2023-01-17T12:24:23.865Z,98292.97
2023-01-17T12:26:59.349Z,98275.91
2023-01-17T12:29:49.979Z,98261.53
2023-01-17T12:32:40.548Z,98260.06
2023-01-17T12:35:15.581Z,98270.16
2023-01-17T12:37:52.659Z,98252.28
2023-01-17T12:40:32.490Z,98257.59
2023-01-17T12:43:09.631Z,98268.91
2023-01-17T12:45:44.004Z,98261.34
2023-01-17T12:48:14.827Z,98272.41
2023-01-17T12:50:51.139Z,97878.53
2023-01-17T12:53:28.485Z,98271.16
2023-01-17T12:56:02.735Z,98270.75
2023-01-17T12:58:39.562Z,98281.63
2023-01-17T13:01:19.453Z,98014.69
2023-01-17T13:03:57.967Z,98292.13
2023-01-17T13:06:33.406Z,98242.34
2023-01-17T13:09:03.962Z,98303.63
2023-01-17T13:11:41.335Z,98293.34
2023-01-17T13:14:11.411Z,98281.41
2023-01-17T13:16:44.078Z,98283.47
2023-01-17T13:19:19.353Z,98269.53
2023-01-17T13:21:49.152Z,98103.09
2023-01-17T13:24:24.125Z,98211.97
2023-01-17T13:27:37.689Z,98219.34
2023-01-17T13:30:31.970Z,98211.53
2023-01-17T13:33:19.668Z,98198.75
2023-01-17T13:36:00.818Z,98186.44
2023-01-17T13:38:42.264Z,98192.53
2023-01-17T13:41:18.404Z,98200.97
2023-01-17T13:44:08.246Z,98005.09
2023-01-17T13:47:00.967Z,98187.81
2023-01-17T13:49:44.794Z,98207.25
2023-01-17T13:52:33.246Z,98194.59
2023-01-17T13:55:03.478Z,98231.50
2023-01-17T13:57:40.191Z,98163.38
2023-01-17T14:00:55.204Z,98236.22
2023-01-17T14:04:05.900Z,98230.69
2023-01-17T14:06:41.416Z,98249.38
2023-01-17T14:09:16.849Z,98259.41
2023-01-17T14:12:04.094Z,98263.72
2023-01-17T14:14:46.314Z,98263.47
2023-01-17T14:17:58.678Z,98274.94
2023-01-17T14:20:52.446Z,98291.69
2023-01-17T14:23:54.151Z,98278.09
2023-01-17T14:26:45.584Z,98136.22
2023-01-17T14:29:57.975Z,98277.28
2023-01-17T14:32:30.899Z,98209.53
2023-01-17T14:35:00.421Z,98220.38
2023-01-17T14:37:43.823Z,98293.06
2023-01-17T14:40:19.548Z,98297.13
2023-01-17T14:42:49.427Z,98003.50
2023-01-17T14:45:29.880Z,98308.75
2023-01-17T14:48:00.300Z,98266.38
2023-01-17T14:50:30.928Z,98315.75
2023-01-17T14:53:28.404Z,98302.81
2023-01-17T14:56:00.035Z,98303.38
2023-01-17T14:58:30.983Z,98313.84
2023-01-17T15:01:03.248Z,98260.94
2023-01-17T15:03:36.133Z,98308.91
2023-01-17T15:06:12.890Z,98263.03
2023-01-17T15:08:43.113Z,98182.31
2023-01-17T15:11:19.598Z,98319.56
2023-01-17T15:13:51.178Z,98315.09
2023-01-17T15:16:23.065Z,98180.03
2023-01-17T15:18:52.538Z,98293.06
2023-01-17T15:21:22.986Z,98200.06
2023-01-17T15:23:56.724Z,98235.88
2023-01-17T15:26:27.007Z,98298.28
2023-01-17T15:29:04.360Z,98319.66
2023-01-17T15:31:42.447Z,98316.81
2023-01-17T15:34:21.174Z,98319.72
2023-01-17T15:36:50.723Z,98311.09
2023-01-17T15:39:24.820Z,98302.91
2023-01-17T15:41:55.074Z,98309.25
2023-01-17T15:44:36.137Z,98236.03
2023-01-17T15:47:29.053Z,98212.47
2023-01-17T15:49:57.793Z,98297.19
2023-01-17T15:52:26.229Z,98286.91
2023-01-17T15:55:00.242Z,98291.50
2023-01-17T15:57:30.429Z,98293.09
2023-01-17T16:00:07.587Z,98218.88
2023-01-17T16:02:43.883Z,98258.13
2023-01-17T16:05:42.082Z,98320.47
2023-01-17T16:08:38.691Z,98328.22
2023-01-17T16:11:19.473Z,98346.69
2023-01-17T16:13:57.806Z,98344.59
2023-01-17T16:16:27.841Z,98216.84
2023-01-17T16:19:02.826Z,98356.44
2023-01-17T16:21:33.210Z,98372.75
2023-01-17T16:24:02.985Z,98209.53
2023-01-17T16:26:32.913Z,98388.84
2023-01-17T16:29:01.529Z,98390.44
2023-01-17T16:31:32.420Z,98207.91
2023-01-17T16:34:01.235Z,98194.63
2023-01-17T16:36:29.665Z,98364.09
2023-01-17T16:38:58.120Z,98408.22
2023-01-17T16:41:26.673Z,98370.22
2023-01-17T16:44:01.701Z,98430.72
2023-01-17T16:46:31.111Z,98407.16
2023-01-17T16:49:00.859Z,98320.41
2023-01-17T16:51:30.472Z,98380.22
2023-01-17T16:53:59.642Z,98433.22
2023-01-17T16:56:29.317Z,98360.91
2023-01-17T16:59:00.229Z,98406.28
2023-01-17T17:01:32.509Z,98237.78
2023-01-17T17:04:04.550Z,98366.66
2023-01-17T17:06:35.068Z,98435.44
2023-01-17T17:09:05.015Z,98439.81
2023-01-17T17:11:38.531Z,98431.19
2023-01-17T17:14:09.488Z,98263.19
2023-01-17T17:16:39.269Z,98312.78
2023-01-17T17:19:09.679Z,98440.91
2023-01-17T17:21:39.392Z,98442.34
2023-01-17T17:24:08.292Z,98286.53
2023-01-17T17:26:39.135Z,98373.81
2023-01-17T17:29:15.350Z,98396.09
2023-01-17T17:31:44.893Z,98264.31
2023-01-17T17:34:15.866Z,98394.56
2023-01-17T17:36:44.633Z,98444.19
2023-01-17T17:39:16.027Z,98457.69
2023-01-17T17:41:46.756Z,98318.47
2023-01-17T17:44:19.694Z,98339.72
2023-01-17T17:46:49.477Z,98152.75
2023-01-17T17:49:21.877Z,98191.06
2023-01-17T17:51:50.691Z,98461.16
2023-01-17T17:54:22.314Z,98472.91
2023-01-17T17:56:51.300Z,98433.84
2023-01-17T17:59:21.187Z,98438.50
2023-01-17T18:01:51.457Z,98422.81
2023-01-17T18:04:23.092Z,98467.28
2023-01-17T18:06:52.729Z,98413.97
2023-01-17T18:09:27.086Z,98174.00
2023-01-17T18:11:59.139Z,98336.19
2023-01-17T18:14:29.052Z,98493.28
2023-01-17T18:16:57.527Z,98500.94
2023-01-17T18:19:27.861Z,98500.63
2023-01-17T18:21:56.460Z,98408.25
2023-01-17T18:24:26.536Z,98454.41
2023-01-17T18:26:57.740Z,98514.16
2023-01-17T18:29:28.525Z,98513.47
2023-01-17T18:31:57.254Z,98538.31
2023-01-17T18:34:29.344Z,98491.50
2023-01-17T18:36:59.141Z,98426.00
2023-01-17T18:39:29.519Z,98155.03
2023-01-17T18:41:58.395Z,98540.50
2023-01-17T18:44:30.248Z,98496.63
2023-01-17T18:47:04.756Z,98355.00
2023-01-17T18:49:35.691Z,98460.44
2023-01-17T18:52:08.123Z,98561.91
2023-01-17T18:54:44.056Z,98407.13
2023-01-17T18:57:17.105Z,98403.66
2023-01-17T18:59:47.093Z,98473.19
2023-01-17T19:02:20.093Z,98545.50
2023-01-17T19:04:48.540Z,98553.13
2023-01-17T19:07:16.916Z,98399.88
2023-01-17T19:09:48.294Z,98582.63
2023-01-17T19:12:20.707Z,98464.44
2023-01-17T19:14:51.751Z,98556.31
2023-01-17T19:17:22.301Z,98371.75
2023-01-17T19:19:52.741Z,98458.47
2023-01-17T19:22:21.832Z,98517.25
2023-01-17T19:24:53.247Z,98433.13
2023-01-17T19:27:22.759Z,98422.69
2023-01-17T19:29:53.546Z,98570.66
2023-01-17T19:32:22.063Z,98576.78
2023-01-17T19:34:53.388Z,98542.69
2023-01-17T19:37:23.006Z,98589.06
2023-01-17T19:39:52.465Z,98330.38
2023-01-17T19:42:22.851Z,98324.13
2023-01-17T19:44:53.815Z,98605.31
2023-01-17T19:47:23.391Z,98454.84
2023-01-17T19:49:51.856Z,98397.03
2023-01-17T19:52:22.387Z,98384.97
2023-01-17T19:54:51.005Z,98521.84
2023-01-17T19:57:22.163Z,98595.53
2023-01-17T19:59:51.178Z,98493.38
2023-01-17T20:02:24.642Z,98302.09
2023-01-17T20:04:53.288Z,98298.78
2023-01-17T20:07:23.021Z,98530.28
2023-01-17T20:09:51.608Z,98520.22
2023-01-17T20:12:21.157Z,98578.66
2023-01-17T20:14:51.203Z,98199.59
2023-01-17T20:17:20.763Z,98517.06
2023-01-17T20:19:51.749Z,98457.19
2023-01-17T20:22:21.661Z,98581.75
2023-01-17T20:24:50.053Z,98586.94
2023-01-17T20:27:21.558Z,98592.56
2023-01-17T20:29:51.395Z,98582.31
2023-01-17T20:32:20.817Z,98596.22
2023-01-17T20:34:50.916Z,98551.69
2023-01-17T20:37:22.699Z,98599.84
2023-01-17T20:39:54.249Z,98581.81
2023-01-17T20:42:22.797Z,98491.00
2023-01-17T20:44:52.178Z,98504.25
2023-01-17T20:47:28.847Z,98604.34
2023-01-17T20:49:59.057Z,98610.97
2023-01-17T20:52:29.067Z,98606.31
2023-01-17T20:54:58.469Z,98465.66
2023-01-17T20:57:28.780Z,98347.16
2023-01-17T20:59:58.313Z,98449.28
2023-01-17T21:02:36.999Z,98586.09
2023-01-17T21:05:07.483Z,98485.84
2023-01-17T21:07:40.198Z,98574.66
2023-01-17T21:10:10.940Z,98559.59
2023-01-17T21:12:39.412Z,98501.41
2023-01-17T21:15:10.730Z,98481.38
2023-01-17T21:17:44.664Z,98559.09
2023-01-17T21:20:15.192Z,98393.72
2023-01-17T21:22:47.082Z,98475.50
2023-01-17T21:25:17.607Z,98318.75
2023-01-17T21:27:47.362Z,98438.91
2023-01-17T21:30:16.100Z,98591.97
2023-01-17T21:32:44.523Z,98431.13
2023-01-17T21:35:14.043Z,98601.31
2023-01-17T21:37:49.488Z,98533.28
2023-01-17T21:40:18.739Z,98626.28
2023-01-17T21:42:52.057Z,98550.19
2023-01-17T21:45:21.494Z,98616.84
2023-01-17T21:47:53.520Z,98580.84
2023-01-17T21:50:33.015Z,98624.63
2023-01-17T21:53:04.584Z,98447.03
2023-01-17T21:55:51.894Z,98468.03
2023-01-17T21:58:39.775Z,98441.34
2023-01-17T22:01:16.085Z,98609.72
2023-01-17T22:03:49.973Z,98445.03
2023-01-17T22:06:20.982Z,98621.25
2023-01-17T22:08:51.099Z,98502.03
2023-01-17T22:11:24.084Z,98530.03
2023-01-17T22:13:52.930Z,98624.50
2023-01-17T22:16:25.255Z,98640.56
2023-01-17T22:18:54.727Z,98616.72
2023-01-17T22:21:24.631Z,98501.31
2023-01-17T22:23:56.991Z,98636.78
2023-01-17T22:26:30.971Z,98657.66
2023-01-17T22:29:02.694Z,98427.91
2023-01-17T22:31:32.374Z,98214.81
2023-01-17T22:34:03.641Z,98647.88
2023-01-17T22:36:37.147Z,98585.75
2023-01-17T22:39:08.034Z,98631.41
2023-01-17T22:41:39.540Z,98640.00
2023-01-17T22:44:10.008Z,98586.13
2023-01-17T22:46:40.588Z,98396.94
2023-01-17T22:49:15.909Z,98553.78
2023-01-17T22:51:45.019Z,98614.97
2023-01-17T22:54:15.831Z,98611.34
2023-01-17T22:56:49.767Z,98628.59
2023-01-17T22:59:18.333Z,98624.78
2023-01-17T23:01:46.840Z,98629.94
2023-01-17T23:04:19.336Z,98630.09
2023-01-17T23:06:48.303Z,98631.09
2023-01-17T23:09:19.232Z,98611.88
2023-01-17T23:11:50.980Z,98650.44
2023-01-17T23:14:21.220Z,98476.91
2023-01-17T23:17:09.793Z,98641.03
2023-01-17T23:19:41.532Z,98655.25
2023-01-17T23:22:19.431Z,98628.38
2023-01-17T23:24:53.747Z,98649.13
2023-01-17T23:27:42.408Z,98666.84
2023-01-17T23:30:14.160Z,98670.63
2023-01-17T23:32:47.286Z,98659.22
2023-01-17T23:35:19.180Z,98662.53
2023-01-17T23:38:05.290Z,98624.06
2023-01-17T23:40:39.153Z,98639.03
2023-01-17T23:43:26.000Z,98656.75
2023-01-17T23:45:56.020Z,98654.78
2023-01-17T23:48:27.743Z,98658.09
2023-01-17T23:51:00.343Z,98654.28
2023-01-17T23:53:30.301Z,98654.28
2023-01-17T23:56:07.527Z,98594.25
2023-01-17T23:58:36.346Z,98664.06
